Time;durP1;ratioP1;P1;durP2;ratioP2;P2;SDS_P1;SDS_P2;PMS_P1;PMS_P2;Temp;Humidity;BMP_temperature;BMP_pressure;BME280_temperature;BME280_humidity;BME280_pressure;Samples;Min_cycle;Max_cycle;Signal;HPM_P1;HPM_P2
2022/10/14 00:00:19;;;;;;;20.30;12.07;;;;;;;11.43;82.27;98811.88;5008706;28;20107;-84
2022/10/14 00:02:45;;;;;;;28.33;16.00;;;;;;;11.64;80.56;98827.84;5008281;28;20065;-83
2022/10/14 00:05:10;;;;;;;19.30;13.52;;;;;;;11.79;80.21;98829.88;5009735;28;20033;-85
2022/10/14 00:07:36;;;;;;;24.25;13.93;;;;;;;11.75;80.11;98816.19;5029617;28;20044;-84
2022/10/14 00:10:04;;;;;;;25.63;16.55;;;;;;;11.67;81.51;98834.56;5010763;28;20032;-83
2022/10/14 00:12:29;;;;;;;19.75;12.77;;;;;;;11.57;80.97;98813.09;5029601;28;20380;-84
2022/10/14 00:14:55;;;;;;;18.95;12.38;;;;;;;11.78;80.10;98822.91;5045665;28;20033;-84
2022/10/14 00:17:21;;;;;;;40.47;24.88;;;;;;;11.67;82.67;98815.88;5048044;28;20477;-84
2022/10/14 00:19:46;;;;;;;21.85;13.40;;;;;;;11.58;81.24;98814.69;5031312;28;20083;-85
2022/10/14 00:22:12;;;;;;;22.02;13.95;;;;;;;11.55;80.88;98793.81;5012036;28;20032;-83
2022/10/14 00:24:38;;;;;;;19.65;13.50;;;;;;;11.82;79.64;98803.41;5042942;28;20115;-83
2022/10/14 00:27:04;;;;;;;41.92;24.55;;;;;;;11.72;80.02;98819.41;5026714;28;20557;-83
2022/10/14 00:29:30;;;;;;;25.23;14.43;;;;;;;11.56;81.58;98812.28;5044379;28;20056;-84
2022/10/14 00:31:55;;;;;;;46.55;24.00;;;;;;;11.75;81.27;98824.22;5013068;28;20110;-84
2022/10/14 00:34:21;;;;;;;49.63;28.70;;;;;;;11.25;86.67;98815.75;5029511;28;20041;-84
2022/10/14 00:36:46;;;;;;;37.38;22.80;;;;;;;11.47;83.13;98813.00;5020200;28;20807;-82
2022/10/14 00:39:11;;;;;;;33.22;17.45;;;;;;;11.54;82.34;98819.75;5007459;28;20076;-83
2022/10/14 00:41:37;;;;;;;25.88;15.00;;;;;;;11.33;83.43;98802.72;5027136;28;20029;-83
2022/10/14 00:44:07;;;;;;;24.88;14.10;;;;;;;11.69;80.86;98808.38;5022268;28;20021;-83
2022/10/14 00:46:41;;;;;;;22.15;13.48;;;;;;;11.85;80.54;98816.28;5041841;28;20143;-82
2022/10/14 00:49:17;;;;;;;19.23;12.98;;;;;;;11.83;79.51;98814.91;5006275;28;20485;-83
2022/10/14 00:51:57;;;;;;;19.95;12.57;;;;;;;11.96;79.08;98815.28;5010707;28;20071;-83
2022/10/14 00:54:28;;;;;;;21.00;13.50;;;;;;;11.90;79.81;98812.84;5008020;28;20041;-83
2022/10/14 00:56:53;;;;;;;20.17;13.82;;;;;;;11.81;79.26;98795.66;5037722;28;20539;-83
2022/10/14 00:59:19;;;;;;;22.83;13.93;;;;;;;11.67;79.81;98803.31;5020287;28;20045;-83
2022/10/14 01:01:45;;;;;;;24.92;13.50;;;;;;;11.60;80.12;98786.63;5025845;28;20032;-84
2022/10/14 01:04:10;;;;;;;20.52;13.63;;;;;;;11.54;80.67;98794.88;5008555;28;20051;-84
2022/10/14 01:06:47;;;;;;;31.15;21.13;;;;;;;11.73;80.60;98814.84;5012008;28;20029;-83
2022/10/14 01:09:19;;;;;;;23.77;15.00;;;;;;;11.51;83.24;98814.91;5025830;28;20029;-83
2022/10/14 01:12:17;;;;;;;20.08;14.63;;;;;;;11.68;80.89;98812.94;5041840;28;20056;-84
2022/10/14 01:14:45;;;;;;;25.17;14.98;;;;;;;11.56;82.58;98816.81;5046351;28;20508;-84
2022/10/14 01:17:35;;;;;;;18.70;13.85;;;;;;;11.63;81.50;98818.22;5046375;28;20036;-84
2022/10/14 01:20:35;;;;;;;19.45;12.73;;;;;;;11.65;81.90;98810.75;5028458;28;20025;-84
2022/10/14 01:23:40;;;;;;;26.40;15.55;;;;;;;11.61;81.21;98804.31;5015086;28;20114;-84
2022/10/14 01:26:11;;;;;;;21.08;13.18;;;;;;;11.68;81.32;98812.13;5040593;28;20040;-84
2022/10/14 01:28:58;;;;;;;22.45;16.05;;;;;;;11.46;82.62;98798.03;5028089;28;20029;-84
2022/10/14 01:31:29;;;;;;;48.45;28.38;;;;;;;11.50;85.41;98810.63;5025761;28;20104;-83
2022/10/14 01:33:58;;;;;;;19.80;14.55;;;;;;;11.58;81.44;98804.81;5029137;28;20128;-84
2022/10/14 01:36:56;;;;;;;41.67;26.73;;;;;;;11.42;84.44;98808.44;5029518;28;20068;-84
2022/10/14 01:39:38;;;;;;;47.72;29.70;;;;;;;11.28;87.53;98810.72;5045987;28;20505;-83
2022/10/14 01:42:10;;;;;;;28.52;19.60;;;;;;;11.17;88.35;98794.84;5047069;28;20099;-83
2022/10/14 01:44:40;;;;;;;29.60;15.45;;;;;;;11.11;84.85;98769.16;5029166;28;20037;-83
2022/10/14 01:47:07;;;;;;;26.17;16.70;;;;;;;11.10;85.68;98776.34;5041603;28;20029;-84
2022/10/14 01:49:42;;;;;;;20.80;15.00;;;;;;;11.32;83.43;98795.78;5011671;28;20025;-82
2022/10/14 01:52:15;;;;;;;32.53;18.60;;;;;;;11.22;87.77;98792.22;5025673;28;20350;-83
2022/10/14 01:54:43;;;;;;;29.33;17.98;;;;;;;11.05;85.64;98751.47;5043601;28;20062;-84
2022/10/14 01:57:14;;;;;;;35.35;21.63;;;;;;;11.05;91.14;98794.19;5042180;28;20030;-84
2022/10/14 01:59:42;;;;;;;38.95;23.70;;;;;;;11.12;85.79;98779.56;5050307;28;20395;-84
2022/10/14 02:02:07;;;;;;;29.73;17.48;;;;;;;11.07;85.25;98754.69;5049885;28;20037;-84
2022/10/14 02:04:32;;;;;;;26.55;17.17;;;;;;;11.37;82.56;98783.53;4998190;28;20025;-83
2022/10/14 02:07:33;;;;;;;19.17;13.95;;;;;;;11.70;81.91;98792.13;5025560;28;20040;-84
2022/10/14 02:10:04;;;;;;;20.30;13.40;;;;;;;11.73;81.21;98791.56;5045207;28;20037;-84
2022/10/14 02:12:37;;;;;;;22.02;13.32;;;;;;;11.44;81.52;98754.72;5028703;28;20036;-84
2022/10/14 02:15:20;;;;;;;25.45;16.25;;;;;;;11.60;81.80;98759.91;5048554;28;20021;-85
2022/10/14 02:18:02;;;;;;;28.45;16.95;;;;;;;11.66;82.09;98780.28;5040159;28;20080;-84
2022/10/14 02:20:36;;;;;;;27.05;15.55;;;;;;;11.53;82.80;98759.31;5047721;28;20021;-84
2022/10/14 02:23:14;;;;;;;28.88;19.80;;;;;;;11.49;82.84;98754.78;5035576;28;20059;-84
2022/10/14 02:25:43;;;;;;;26.77;17.63;;;;;;;11.70;81.99;98769.91;5049889;28;20036;-84
2022/10/14 02:28:14;;;;;;;24.02;16.15;;;;;;;11.84;81.98;98765.72;5012098;28;20033;-84
2022/10/14 02:30:43;;;;;;;25.88;15.85;;;;;;;11.82;81.75;98762.47;5037094;28;20082;-84
2022/10/14 02:33:09;;;;;;;29.35;18.77;;;;;;;11.41;83.67;98740.00;5034394;28;20033;-83
2022/10/14 02:35:36;;;;;;;29.20;17.13;;;;;;;11.62;82.99;98755.09;5014530;28;20040;-83
2022/10/14 02:38:02;;;;;;;28.67;16.65;;;;;;;11.62;82.61;98752.44;5024289;28;20044;-84
2022/10/14 02:40:49;;;;;;;28.33;16.05;;;;;;;11.75;82.77;98769.94;5005314;28;20036;-84
2022/10/14 02:43:15;;;;;;;23.25;15.90;;;;;;;11.70;83.21;98767.22;5049305;28;20535;-84
2022/10/14 02:45:42;;;;;;;25.35;15.73;;;;;;;11.60;83.05;98749.22;5029900;28;20020;-84
2022/10/14 02:48:09;;;;;;;28.75;18.00;;;;;;;11.48;83.36;98748.59;5023827;28;20029;-84
2022/10/14 02:50:35;;;;;;;24.65;16.50;;;;;;;11.61;83.55;98758.03;4998355;28;20029;-83
2022/10/14 02:53:00;;;;;;;28.23;17.83;;;;;;;11.61;83.51;98752.69;5028238;28;20041;-83
2022/10/14 02:55:25;;;;;;;25.77;16.17;;;;;;;11.63;83.56;98751.38;5029115;28;20078;-83
2022/10/14 02:57:51;;;;;;;30.88;17.90;;;;;;;11.59;83.60;98746.81;5025328;28;20033;-84
2022/10/14 03:00:16;;;;;;;30.83;18.88;;;;;;;11.71;83.34;98744.75;5026835;28;20083;-83
2022/10/14 03:02:42;;;;;;;34.42;21.75;;;;;;;11.41;85.42;98729.31;5013985;28;20040;-84
2022/10/14 03:05:08;;;;;;;27.27;18.48;;;;;;;11.40;85.50;98734.91;5049144;28;20040;-84
2022/10/14 03:07:33;;;;;;;27.15;17.85;;;;;;;11.47;84.56;98738.97;5028436;28;20052;-84
2022/10/14 03:09:59;;;;;;;34.38;20.88;;;;;;;11.25;85.54;98715.03;5029221;28;20119;-84
2022/10/14 03:12:25;;;;;;;32.13;20.00;;;;;;;11.25;87.29;98725.72;5031773;28;20037;-84
2022/10/14 03:14:50;;;;;;;35.00;21.17;;;;;;;11.29;87.78;98728.69;5034573;28;20032;-84
2022/10/14 03:17:18;;;;;;;21.17;14.63;;;;;;;11.49;83.65;98715.47;5034921;28;20029;-84
2022/10/14 03:19:43;;;;;;;35.30;20.98;;;;;;;11.26;86.21;98710.50;5049312;28;20025;-84
2022/10/14 03:22:08;;;;;;;25.30;15.35;;;;;;;11.51;83.30;98726.69;5012826;28;20049;-84
2022/10/14 03:24:34;;;;;;;20.08;14.35;;;;;;;11.43;83.65;98719.16;5011357;28;20107;-84
2022/10/14 03:26:59;;;;;;;25.70;15.93;;;;;;;11.55;83.08;98727.00;5012494;28;20139;-84
2022/10/14 03:29:25;;;;;;;23.10;14.95;;;;;;;11.67;83.02;98743.69;5011492;28;20028;-84
2022/10/14 03:31:50;;;;;;;29.10;18.98;;;;;;;11.34;86.13;98731.38;5027949;28;20035;-84
2022/10/14 03:34:15;;;;;;;30.30;19.38;;;;;;;11.33;86.66;98743.94;4999658;28;20069;-84
2022/10/14 03:36:41;;;;;;;25.08;16.85;;;;;;;11.54;83.71;98741.41;5012644;28;20021;-83
2022/10/14 03:39:09;;;;;;;25.88;15.48;;;;;;;11.47;85.01;98744.31;5022604;28;20071;-83
2022/10/14 03:41:34;;;;;;;37.13;20.83;;;;;;;11.10;90.29;98732.78;5027769;28;20029;-82
2022/10/14 03:43:59;;;;;;;26.55;14.85;;;;;;;11.34;85.41;98734.06;5030181;28;20851;-83
2022/10/14 03:46:25;;;;;;;21.48;13.73;;;;;;;11.44;83.79;98739.50;5014309;28;20572;-82
2022/10/14 03:48:51;;;;;;;32.63;19.17;;;;;;;11.38;85.44;98729.03;5032123;28;20126;-83
2022/10/14 03:51:17;;;;;;;22.27;14.88;;;;;;;11.41;84.38;98734.66;5023328;28;21472;-82
2022/10/14 03:53:42;;;;;;;25.75;17.10;;;;;;;11.50;83.82;98740.31;5025640;28;20032;-82
2022/10/14 03:56:07;;;;;;;21.63;13.18;;;;;;;11.52;84.09;98739.00;5013918;28;20043;-82
2022/10/14 03:58:33;;;;;;;30.95;17.98;;;;;;;11.32;85.16;98717.47;5031935;28;20159;-82
2022/10/14 04:00:58;;;;;;;20.52;12.45;;;;;;;11.48;82.90;98723.75;5010487;28;20069;-83
2022/10/14 04:03:23;;;;;;;20.08;12.88;;;;;;;11.60;82.58;98729.72;5010387;28;20025;-80
2022/10/14 04:05:49;;;;;;;18.65;12.82;;;;;;;11.55;82.77;98713.63;5026271;28;20112;-79
2022/10/14 04:08:14;;;;;;;25.92;16.90;;;;;;;11.55;83.30;98719.78;5026550;28;20461;-80
2022/10/14 04:10:40;;;;;;;21.83;13.85;;;;;;;11.62;82.37;98698.97;5027396;28;20608;-80
2022/10/14 04:13:05;;;;;;;23.77;13.38;;;;;;;11.56;82.84;98697.34;5027610;28;20108;-81
2022/10/14 04:15:30;;;;;;;25.48;12.48;;;;;;;11.62;82.71;98715.00;5010104;28;20044;-80
2022/10/14 04:17:56;;;;;;;18.95;12.65;;;;;;;11.34;83.03;98675.28;5026181;28;20124;-80
2022/10/14 04:20:21;;;;;;;19.77;12.90;;;;;;;11.25;82.55;98647.41;5025062;28;20029;-80
2022/10/14 04:22:46;;;;;;;20.15;12.75;;;;;;;11.74;82.44;98721.00;5049981;28;20516;-80
2022/10/14 04:25:12;;;;;;;19.75;13.70;;;;;;;11.64;83.21;98723.56;5028109;28;20033;-80
2022/10/14 04:27:37;;;;;;;21.15;14.88;;;;;;;11.64;83.26;98714.78;5021155;28;20041;-79
2022/10/14 04:30:04;;;;;;;19.63;14.20;;;;;;;11.53;83.22;98697.84;5029433;28;20115;-80
2022/10/14 04:32:29;;;;;;;22.55;13.63;;;;;;;11.62;83.21;98703.53;5046149;28;20028;-80
2022/10/14 04:34:55;;;;;;;18.60;13.02;;;;;;;11.40;84.19;98692.16;5025039;28;20047;-81
2022/10/14 04:37:20;;;;;;;20.17;13.02;;;;;;;11.58;83.50;98713.09;5021580;28;20020;-80
2022/10/14 04:39:46;;;;;;;18.25;12.80;;;;;;;11.79;82.99;98718.38;5023825;28;20488;-80
2022/10/14 04:42:11;;;;;;;21.58;13.45;;;;;;;11.79;82.99;98714.88;5021985;28;20043;-80
2022/10/14 04:44:36;;;;;;;20.13;12.90;;;;;;;11.75;82.79;98705.78;5043855;28;20032;-80
2022/10/14 04:47:02;;;;;;;20.58;13.20;;;;;;;11.75;83.10;98711.13;5017447;28;20504;-80
2022/10/14 04:49:28;;;;;;;18.30;13.27;;;;;;;11.67;83.07;98706.25;5055534;28;20033;-80
2022/10/14 04:51:53;;;;;;;19.83;12.50;;;;;;;11.75;83.25;98703.88;5021592;28;20047;-80
2022/10/14 04:54:19;;;;;;;19.00;12.00;;;;;;;11.72;83.26;98700.94;5038941;28;20477;-80
2022/10/14 04:56:44;;;;;;;18.98;12.15;;;;;;;11.61;83.46;98696.56;5031648;28;20473;-80
2022/10/14 04:59:10;;;;;;;17.45;11.93;;;;;;;11.64;83.61;98717.44;5057841;28;20043;-80
2022/10/14 05:01:36;;;;;;;22.52;11.80;;;;;;;11.66;83.30;98716.13;5061955;28;20040;-80
2022/10/14 05:04:01;;;;;;;14.00;11.55;;;;;;;11.71;83.05;98713.50;5017060;28;20029;-80
2022/10/14 05:06:27;;;;;;;13.90;11.80;;;;;;;11.69;83.23;98710.28;5048486;28;20033;-80
2022/10/14 05:08:52;;;;;;;17.35;11.25;;;;;;;11.36;84.47;98688.41;5014916;28;20373;-80
2022/10/14 05:11:17;;;;;;;15.93;11.25;;;;;;;11.33;84.32;98684.38;5015478;28;20132;-80
2022/10/14 05:13:43;;;;;;;20.27;12.13;;;;;;;11.50;83.29;98689.53;5031185;28;20078;-80
2022/10/14 05:16:08;;;;;;;14.85;10.63;;;;;;;11.46;83.69;98685.78;5037438;28;20033;-80
2022/10/14 05:18:34;;;;;;;15.07;10.43;;;;;;;11.49;83.67;98702.09;5027897;28;20059;-80
2022/10/14 05:20:59;;;;;;;20.35;13.32;;;;;;;11.27;86.04;98704.88;5029084;28;20037;-80
2022/10/14 05:23:25;;;;;;;20.77;12.10;;;;;;;11.40;84.50;98700.19;5048128;28;20025;-79
2022/10/14 05:25:51;;;;;;;19.95;12.05;;;;;;;11.27;85.86;98707.56;5024811;28;20519;-80
2022/10/14 05:28:17;;;;;;;15.45;10.57;;;;;;;11.30;85.26;98700.91;5025162;28;20033;-79
2022/10/14 05:30:43;;;;;;;17.65;11.40;;;;;;;11.25;86.16;98700.84;5028858;28;20064;-80
2022/10/14 05:33:09;;;;;;;15.13;10.35;;;;;;;11.24;84.15;98685.91;5035968;28;20040;-79
2022/10/14 05:35:34;;;;;;;16.33;10.77;;;;;;;11.19;86.39;98688.53;5037112;28;20590;-79
2022/10/14 05:38:00;;;;;;;16.35;11.32;;;;;;;11.15;87.57;98698.94;5034590;28;20042;-81
2022/10/14 05:40:25;;;;;;;17.92;12.05;;;;;;;11.17;85.35;98679.97;5034925;28;20116;-79
2022/10/14 05:42:51;;;;;;;12.70;9.02;;;;;;;11.20;85.22;98685.59;5017067;28;20036;-81
2022/10/14 05:45:16;;;;;;;17.88;12.93;;;;;;;11.22;86.09;98696.84;5016075;28;20037;-80
2022/10/14 05:47:43;;;;;;;23.75;14.07;;;;;;;11.02;88.73;98690.53;5048985;28;20028;-81
2022/10/14 05:50:09;;;;;;;21.90;13.93;;;;;;;10.95;89.91;98700.63;5052088;28;20487;-82
2022/10/14 05:52:34;;;;;;;17.70;11.93;;;;;;;10.91;89.25;98688.84;5050151;28;20031;-81
2022/10/14 05:55:00;;;;;;;24.40;13.60;;;;;;;10.67;91.37;98688.34;5048348;28;20047;-82
2022/10/14 05:57:27;;;;;;;26.15;14.25;;;;;;;11.02;87.76;98701.22;5050951;28;20025;-82
2022/10/14 05:59:52;;;;;;;18.25;11.95;;;;;;;10.97;89.34;98699.31;5021440;28;20389;-81
2022/10/14 06:02:18;;;;;;;9.73;7.82;;;;;;;11.20;84.88;98687.47;5042303;28;20034;-80
2022/10/14 06:04:43;;;;;;;10.48;8.18;;;;;;;11.33;83.71;98689.72;5053647;28;20033;-80
2022/10/14 06:07:09;;;;;;;9.13;7.63;;;;;;;11.28;83.64;98684.31;5017566;28;20032;-82
2022/10/14 06:09:35;;;;;;;11.93;7.72;;;;;;;11.43;83.43;98705.81;5017200;28;20033;-80
2022/10/14 06:12:02;;;;;;;17.88;11.75;;;;;;;11.26;85.16;98694.47;5034871;28;20041;-80
2022/10/14 06:14:27;;;;;;;11.40;8.23;;;;;;;11.54;83.27;98694.13;5035859;28;20107;-82
2022/10/14 06:16:53;;;;;;;12.07;8.70;;;;;;;11.54;83.62;98704.00;5035587;28;20083;-81
2022/10/14 06:19:18;;;;;;;12.80;9.55;;;;;;;11.27;84.99;98688.03;5031310;28;20036;-82
2022/10/14 06:21:43;;;;;;;14.13;9.63;;;;;;;11.38;84.17;98687.06;5053352;28;21004;-81
2022/10/14 06:24:09;;;;;;;16.88;12.65;;;;;;;11.44;83.44;98685.22;5012845;28;20021;-80
2022/10/14 06:26:35;;;;;;;12.82;8.50;;;;;;;11.69;82.69;98694.22;5057153;28;20508;-81
2022/10/14 06:29:00;;;;;;;14.63;8.48;;;;;;;11.73;82.85;98707.91;5050907;28;20040;-81
2022/10/14 06:31:26;;;;;;;11.52;8.20;;;;;;;11.64;83.75;98706.75;5043053;28;20033;-82
2022/10/14 06:33:51;;;;;;;9.85;7.90;;;;;;;11.78;82.78;98695.34;5037503;28;20041;-80
2022/10/14 06:36:17;;;;;;;11.05;7.97;;;;;;;11.70;83.01;98705.75;5034254;28;20043;-81
2022/10/14 06:38:42;;;;;;;14.02;8.65;;;;;;;11.66;83.47;98694.75;5060923;28;20107;-81
2022/10/14 06:41:07;;;;;;;12.38;9.80;;;;;;;11.56;83.37;98677.81;5043469;28;20068;-80
2022/10/14 06:43:34;;;;;;;11.45;8.68;;;;;;;11.67;83.46;98704.38;5057343;28;20022;-81
2022/10/14 06:46:00;;;;;;;13.52;8.63;;;;;;;11.89;82.70;98706.91;5033741;28;20041;-80
2022/10/14 06:48:25;;;;;;;13.02;8.82;;;;;;;11.89;82.49;98693.53;5059313;28;20024;-82
2022/10/14 06:50:51;;;;;;;9.50;8.27;;;;;;;12.01;82.31;98702.94;5013200;28;20120;-80
2022/10/14 06:53:16;;;;;;;10.27;7.90;;;;;;;11.80;82.42;98693.22;5039445;28;20649;-81
2022/10/14 06:55:41;;;;;;;9.85;7.95;;;;;;;11.67;84.27;98706.25;5042989;28;20112;-81
2022/10/14 06:58:07;;;;;;;12.23;7.95;;;;;;;11.66;83.95;98700.09;5063433;28;20639;-82
2022/10/14 07:00:32;;;;;;;10.32;8.10;;;;;;;11.64;84.14;98696.84;5063737;28;20024;-82
2022/10/14 07:02:58;;;;;;;13.70;8.70;;;;;;;11.56;84.28;98683.97;5021341;28;20443;-83
2022/10/14 07:05:24;;;;;;;14.10;9.02;;;;;;;11.61;84.43;98683.19;5034355;28;20055;-83
2022/10/14 07:07:49;;;;;;;17.50;9.95;;;;;;;11.96;83.15;98694.91;5052809;28;20499;-83
2022/10/14 07:10:15;;;;;;;11.18;9.35;;;;;;;11.69;84.73;98696.91;5047978;28;20138;-82
2022/10/14 07:12:40;;;;;;;16.13;10.10;;;;;;;11.97;83.53;98693.84;5044451;28;20373;-82
2022/10/14 07:15:06;;;;;;;14.95;10.05;;;;;;;12.04;82.99;98694.41;5027282;28;20094;-82
2022/10/14 07:17:32;;;;;;;16.25;10.65;;;;;;;12.14;82.93;98695.53;5022389;28;20033;-82
2022/10/14 07:19:57;;;;;;;17.33;11.07;;;;;;;12.14;82.66;98695.53;5042431;28;20029;-82
2022/10/14 07:22:22;;;;;;;15.27;10.25;;;;;;;12.08;83.47;98704.59;5025605;28;20530;-82
2022/10/14 07:24:48;;;;;;;18.67;11.75;;;;;;;11.87;84.49;98690.31;5050990;28;20208;-82
2022/10/14 07:27:15;;;;;;;20.75;10.65;;;;;;;12.11;84.11;98704.88;5057009;28;20075;-82
2022/10/14 07:29:41;;;;;;;15.13;10.85;;;;;;;11.91;84.93;98696.75;5054497;28;20108;-82
2022/10/14 07:32:06;;;;;;;16.33;10.75;;;;;;;11.88;85.01;98700.75;5023408;28;20037;-82
2022/10/14 07:34:33;;;;;;;14.52;10.63;;;;;;;12.16;84.22;98701.41;5041531;28;20431;-82
2022/10/14 07:36:59;;;;;;;15.25;9.98;;;;;;;12.08;84.58;98699.25;5051059;28;20048;-82
2022/10/14 07:39:24;;;;;;;15.45;10.55;;;;;;;12.09;84.88;98711.53;5048592;28;20076;-82
2022/10/14 07:41:50;;;;;;;15.65;10.85;;;;;;;11.93;88.11;98716.81;5039354;28;20024;-82
2022/10/14 07:44:16;;;;;;;16.70;10.75;;;;;;;11.89;85.25;98685.50;5059870;28;20039;-82
2022/10/14 07:46:44;;;;;;;14.65;9.93;;;;;;;12.00;85.22;98692.50;5060505;28;20154;-82
2022/10/14 07:49:12;;;;;;;13.63;9.25;;;;;;;12.18;84.64;98718.00;5059104;28;20044;-82
2022/10/14 07:51:38;;;;;;;13.15;7.97;;;;;;;12.18;86.08;98712.66;5052428;28;20078;-82
2022/10/14 07:54:08;;;;;;;18.27;9.20;;;;;;;12.03;87.25;98710.72;5050513;28;20024;-82
2022/10/14 07:56:35;;;;;;;11.70;8.75;;;;;;;11.96;86.93;98707.47;5031043;28;20037;-82
2022/10/14 07:59:01;;;;;;;12.30;8.50;;;;;;;11.97;88.52;98711.75;5022382;28;20380;-82
2022/10/14 08:01:26;;;;;;;12.77;9.00;;;;;;;12.34;84.06;98717.00;5037899;28;20028;-82
2022/10/14 08:03:52;;;;;;;9.25;7.85;;;;;;;12.02;89.13;98717.94;5040842;28;20068;-82
2022/10/14 08:06:18;;;;;;;11.05;8.23;;;;;;;12.05;89.29;98708.59;5043056;28;20095;-82
2022/10/14 08:08:43;;;;;;;12.05;7.80;;;;;;;12.23;85.01;98710.00;5060756;28;20028;-82
2022/10/14 08:11:14;;;;;;;11.70;8.25;;;;;;;12.17;85.70;98708.34;5059979;28;20063;-82
2022/10/14 08:13:40;;;;;;;9.43;7.53;;;;;;;12.24;85.91;98708.94;5054084;28;20032;-82
2022/10/14 08:16:17;;;;;;;14.32;8.48;;;;;;;12.01;89.93;98694.13;5038801;28;20055;-81
2022/10/14 08:18:44;;;;;;;10.57;8.60;;;;;;;12.17;88.12;98705.69;5045197;28;20503;-82
2022/10/14 08:21:10;;;;;;;12.38;8.93;;;;;;;11.88;92.13;98695.41;5038596;28;20031;-82
2022/10/14 08:23:35;;;;;;;10.52;6.93;;;;;;;12.19;85.67;98716.97;5056981;28;20037;-82
2022/10/14 08:26:00;;;;;;;9.40;7.28;;;;;;;12.23;85.11;98699.31;5041755;28;20078;-82
2022/10/14 08:28:26;;;;;;;7.82;6.97;;;;;;;12.20;86.52;98697.16;5028602;28;20156;-82
2022/10/14 08:30:52;;;;;;;10.57;8.70;;;;;;;12.24;90.86;98703.56;5040373;28;20035;-82
2022/10/14 08:33:18;;;;;;;10.90;7.95;;;;;;;12.33;89.55;98710.03;5038387;28;20082;-82
2022/10/14 08:35:43;;;;;;;14.38;11.57;;;;;;;12.28;91.69;98710.00;5022322;28;20035;-82
2022/10/14 08:38:09;;;;;;;15.43;10.77;;;;;;;12.38;89.30;98696.69;5045490;28;20053;-82
2022/10/14 08:40:55;;;;;;;12.55;8.80;;;;;;;12.22;87.65;98673.59;5049553;28;20025;-82
2022/10/14 08:43:57;;;;;;;11.40;8.77;;;;;;;12.32;89.99;98692.38;5036556;28;20031;-82
2022/10/14 08:46:34;;;;;;;7.45;6.57;;;;;;;12.40;85.01;98694.53;5005751;28;20033;-82
2022/10/14 08:49:15;;;;;;;10.35;6.18;;;;;;;12.37;84.60;98693.19;5028215;28;20028;-82
2022/10/14 08:51:44;;;;;;;8.02;6.55;;;;;;;12.40;85.60;98691.88;5034303;28;20082;-82
2022/10/14 08:54:15;;;;;;;7.25;6.30;;;;;;;12.49;85.46;98698.31;5059070;28;20040;-82
2022/10/14 08:56:41;;;;;;;7.15;5.90;;;;;;;12.47;86.19;98687.84;5036110;28;20028;-82
2022/10/14 08:59:13;;;;;;;7.25;5.68;;;;;;;12.37;87.70;98665.63;5058003;28;20033;-82
2022/10/14 09:01:50;;;;;;;7.75;6.38;;;;;;;12.34;88.29;98668.84;5065697;28;20100;-82
2022/10/14 09:04:16;;;;;;;8.50;6.72;;;;;;;12.51;87.84;98680.94;5066706;28;20468;-82
2022/10/14 09:06:47;;;;;;;11.55;6.68;;;;;;;12.56;87.74;98685.47;5065277;28;20171;-82
2022/10/14 09:09:42;;;;;;;6.53;5.57;;;;;;;12.66;86.14;98683.63;5033214;28;20047;-82
2022/10/14 09:12:19;;;;;;;7.38;4.80;;;;;;;12.67;86.11;98679.06;5029317;28;20120;-82
2022/10/14 09:15:16;;;;;;;9.88;5.72;;;;;;;12.71;85.73;98674.78;5034268;28;20025;-82
2022/10/14 09:17:51;;;;;;;7.05;4.07;;;;;;;12.73;87.00;98672.66;5052773;28;20078;-82
2022/10/14 09:20:21;;;;;;;5.80;3.90;;;;;;;12.76;87.03;98666.75;5049663;28;20108;-82
2022/10/14 09:23:14;;;;;;;5.78;4.22;;;;;;;12.82;85.80;98664.91;5031696;28;20707;-82
2022/10/14 09:25:54;;;;;;;6.75;4.13;;;;;;;12.86;85.62;98663.28;5050966;28;20025;-82
2022/10/14 09:28:21;;;;;;;6.05;3.47;;;;;;;12.91;85.36;98677.47;5051327;28;20376;-81
2022/10/14 09:30:47;;;;;;;5.43;3.80;;;;;;;12.86;85.51;98655.25;5055341;28;20060;-82
2022/10/14 09:33:19;;;;;;;5.13;3.33;;;;;;;12.94;86.03;98657.38;5058125;28;20564;-82
2022/10/14 09:35:45;;;;;;;3.65;3.17;;;;;;;13.06;85.53;98668.69;5033362;28;20048;-82
2022/10/14 09:38:11;;;;;;;3.47;3.17;;;;;;;13.12;85.55;98672.97;5025529;28;20208;-82
2022/10/14 09:40:42;;;;;;;3.85;2.95;;;;;;;13.11;85.59;98672.16;5048813;28;20017;-82
2022/10/14 09:43:07;;;;;;;4.13;2.95;;;;;;;13.15;85.74;98672.44;5050685;28;20024;-81
2022/10/14 09:45:52;;;;;;;3.92;3.08;;;;;;;12.99;85.41;98644.81;5038316;28;20043;-82
2022/10/14 09:48:33;;;;;;;3.50;2.88;;;;;;;13.16;85.28;98674.03;5032761;28;20576;-82
2022/10/14 09:51:02;;;;;;;3.55;2.90;;;;;;;13.18;84.88;98664.66;5032339;28;20120;-81
2022/10/14 09:53:29;;;;;;;3.58;2.97;;;;;;;13.21;84.91;98668.66;5039161;28;20040;-82
2022/10/14 09:56:00;;;;;;;4.68;2.83;;;;;;;13.16;85.52;98653.41;5019961;28;20053;-81
2022/10/14 09:58:49;;;;;;;2.75;2.55;;;;;;;13.29;84.82;98652.84;5045742;28;20477;-82
2022/10/14 10:01:18;;;;;;;2.47;2.28;;;;;;;13.25;84.89;98642.94;5035618;28;20075;-82
2022/10/14 10:03:44;;;;;;;2.97;2.75;;;;;;;13.35;84.53;98657.13;5026690;28;20058;-82
2022/10/14 10:06:19;;;;;;;3.85;2.90;;;;;;;13.34;84.61;98652.03;5049762;28;20166;-82
2022/10/14 10:08:57;;;;;;;3.17;2.63;;;;;;;13.47;84.48;98654.97;5052935;28;20040;-82
2022/10/14 10:11:37;;;;;;;3.03;2.72;;;;;;;13.45;84.09;98640.22;5032885;28;20170;-82
2022/10/14 10:14:26;;;;;;;3.75;2.95;;;;;;;13.53;84.32;98650.38;5050729;28;20127;-82
2022/10/14 10:17:06;;;;;;;5.05;2.78;;;;;;;13.58;84.94;98646.88;5058336;28;20024;-82
2022/10/14 10:19:44;;;;;;;3.35;2.65;;;;;;;13.55;84.78;98629.44;5051055;28;20021;-82
2022/10/14 10:22:21;;;;;;;3.13;2.58;;;;;;;13.60;84.44;98626.78;5054935;28;20033;-82
2022/10/14 10:24:51;;;;;;;3.42;3.13;;;;;;;13.82;83.58;98635.28;5035036;28;20507;-82
2022/10/14 10:27:24;;;;;;;4.63;3.38;;;;;;;13.76;83.34;98616.78;5036202;28;20120;-82
2022/10/14 10:29:50;;;;;;;2.72;2.42;;;;;;;13.65;83.02;98610.63;5053019;28;20031;-82
2022/10/14 10:32:28;;;;;;;3.55;2.55;;;;;;;13.70;83.16;98607.94;5055697;28;20021;-82
2022/10/14 10:34:55;;;;;;;3.78;2.70;;;;;;;13.96;82.47;98609.44;5054736;28;20032;-81
2022/10/14 10:37:28;;;;;;;3.33;3.03;;;;;;;13.82;83.22;98613.00;5037190;28;20028;-82
2022/10/14 10:40:11;;;;;;;4.03;2.90;;;;;;;13.89;82.58;98602.78;5045108;28;20484;-82
2022/10/14 10:43:38;;;;;;;5.43;3.08;;;;;;;13.76;82.93;98592.66;5057235;28;20032;-81
2022/10/14 10:46:18;;;;;;;3.80;3.22;;;;;;;13.87;83.00;98607.63;4969636;28;20042;-82
2022/10/14 10:48:56;;;;;;;2.72;2.53;;;;;;;13.74;82.72;98589.44;4983562;28;20053;-82
2022/10/14 10:51:33;;;;;;;3.88;3.13;;;;;;;13.92;82.51;98604.91;5008197;28;20086;-82
2022/10/14 10:54:26;;;;;;;4.72;3.33;;;;;;;13.80;82.37;98589.16;5016275;28;20121;-81
2022/10/14 10:57:00;;;;;;;3.40;3.10;;;;;;;13.94;82.10;98595.50;5016770;28;20029;-81
2022/10/14 10:59:39;;;;;;;5.97;3.33;;;;;;;13.92;82.55;98603.03;5060237;28;20052;-81
2022/10/14 11:02:32;;;;;;;5.53;3.40;;;;;;;13.78;82.42;98602.00;5074110;28;20048;-82
2022/10/14 11:05:20;;;;;;;7.72;3.67;;;;;;;13.82;82.60;98578.94;5074125;28;20024;-82
2022/10/14 11:14:33;;;;;;;4.38;3.38;;;;;;;13.97;82.20;98586.09;5035531;28;20036;-82
2022/10/14 11:17:20;;;;;;;5.90;4.15;;;;;;;14.01;82.23;98579.09;5040948;28;20191;-82
2022/10/14 11:19:53;;;;;;;5.45;3.65;;;;;;;13.89;81.73;98554.50;5030323;28;20562;-81
2022/10/14 11:22:37;;;;;;;7.32;3.33;;;;;;;13.87;82.27;98554.75;5035203;28;20025;-82
2022/10/14 11:25:31;;;;;;;5.45;3.95;;;;;;;13.99;82.70;98573.22;5043898;28;20044;-82
2022/10/14 11:28:26;;;;;;;4.03;3.72;;;;;;;13.95;82.11;98566.78;5059821;28;20020;-81
2022/10/14 11:31:12;;;;;;;7.38;3.45;;;;;;;13.95;82.21;98566.78;5072901;28;20480;-81
2022/10/14 11:33:52;;;;;;;4.40;3.60;;;;;;;13.96;81.98;98569.19;5035486;28;20082;-82
2022/10/14 11:36:43;;;;;;;4.15;3.63;;;;;;;13.82;82.27;98553.97;5050818;28;20524;-82
2022/10/14 11:39:18;;;;;;;5.10;3.60;;;;;;;13.89;81.83;98549.13;5028323;28;20082;-82
2022/10/14 11:42:01;;;;;;;3.97;3.58;;;;;;;13.94;82.18;98557.13;5038224;28;20021;-81